Main page
METAR-TAF:

METAR-TAF

Airports :

Albacete Airport

Albacete, Spain

latitude: 38-57N, longitude: 001-51W, elevation: 702 m

Current weather observation

The report was made 29 minutes ago, at 00:00 UTC
Wind 6 kt from the Southeast
Temperature 22°C
Humidity 65%
Pressure 1015 hPa
Visibility 10 km or more
no clouds below 1500 m and no cumulonimbus

METAR: LEAB 130000Z 14006KT CAVOK 22/15 Q1015 NOSIG

Time: 02:29 (00:29 UTC)

Forecast

The report was made 1 hour and 29 minutes ago, at 23:00 UTC
Forecast valid from 13 at 00 UTC to 13 at 24 UTC
Wind 10 kt from the Southeast
Visibility 10 km or more
no clouds below 1500 m and no cumulonimbus
Probability 40% :
Temporary
from 13 at 05 UTC to 13 at 08 UTC
Overcast at a height of 1400 ft
Probability 30% :
Temporary
from 13 at 16 UTC to 13 at 24 UTC
Wind 15 kt from the South/Southeast with gusts up to 30 kt

TAF: LEAB 122300Z 1300/1324 14010KT CAVOK TX35/1315Z TN16/1305Z PROB40 TEMPO 1305/1308 OVC014 PROB30 TEMPO 1316/1324 16015G30KT

Weather observations and forecasts of more than 4000 airports (METAR and TAF reports).

The available stations are represented by yellow and red dots on the map.

Hover mouse over dot to see the name of the station.

Then click to see weather observations and forecasts.

To change the map : click on the green buttons with a black cross to zoom in, on the green button with a dash to zoom out, or on the green arrows for adjacent maps.


METAR-TAF: